Flight Track Log - Related Links

Times and Time Zones

All times are in EDT time to prevent confusion due to time zone crossing. See the SWA1464 flight status page for this flight to view local times or setup timezone preferences in your user account.

Time Position Orientation Groundspeed Altitude Reporting Facility
EDT Latitude Longitude Course Direction KTS MPH feet Rate Location/Type
Sun 03:27:07 PM 27.7842 -97.5200 348° North 171 197 900  Level Houston Center
Sun 03:27:31 PM 27.8033 -97.5244 348° North 180 207 1,700 2,538 Climbing Houston Center
Sun 03:28:51 PM 27.8828 -97.5258 359° North 265 305 5,300 3,380 Climbing Houston Center
Sun 03:29:53 PM 27.9414 -97.4683 41° Northeast 273 314 9,700 3,435 Climbing Houston Center
Sun 03:30:55 PM 28.0061 -97.3850 49° Northeast 319 367 12,400 2,758 Climbing Houston Center
Sun 03:31:57 PM 28.0828 -97.3067 42° Northeast 366 421 15,400 2,903 Climbing Houston Center
Sun 03:32:59 PM 28.1622 -97.2250 42° Northeast 383 441 18,400 2,855 Climbing Houston Center
Sun 03:34:01 PM 28.2475 -97.1375 42° Northeast 411 473 21,300 2,592 Climbing Houston Center
Sun 03:35:04 PM 28.3347 -97.0464 43° Northeast 423 487 23,800 1,248 Climbing Houston Center
Sun 03:36:06 PM 28.4244 -96.9553 42° Northeast 363 418 23,900 97 Climbing Houston Center
Sun 03:37:08 PM 28.4944 -96.8822 43° Northeast 347 399 24,000 48 Climbing Houston Center
Sun 03:38:10 PM 28.5667 -96.8139 40° Northeast 340 391 24,000  Level Houston Center
Sun 03:39:12 PM 28.6472 -96.7789 21° North 312 359 24,000  Level Houston Center
Sun 03:40:14 PM 28.7267 -96.7433 21° North 307 353 24,000 -145 Level Houston Center
Sun 03:41:16 PM 28.8197 -96.7008 22° Northeast 303 349 23,700 -629 Descending Houston Center
Sun 03:42:18 PM 28.8972 -96.6658 22° Northeast 301 346 22,700 -968 Descending Houston Center
Sun 03:43:20 PM 28.9733 -96.6328 21° North 295 339 21,700 -912 Descending Houston Center
Sun 03:44:23 PM 29.0414 -96.5914 28° Northeast 288 331 20,800 -816 Descending Houston Center
Sun 03:45:25 PM 29.0289 -96.5000 99° East 327 376 20,000 -387 Descending Houston Center
Sun 03:46:27 PM 28.9514 -96.5142 189° South 300 345 20,000  Level Houston Center
Sun 03:47:29 PM 28.9633 -96.6025 279° West 242 278 20,000 -581 Level Houston Center
Sun 03:49:33 PM 29.1369 -96.6431 348° North 329 379 18,200 -1,194 Descending Houston Center
Sun 03:50:35 PM 29.2247 -96.6158 15° North 353 406 16,300 -1,403 Descending Houston Center
Sun 03:51:37 PM 29.2536 -96.5081 73° East 363 418 15,300 -1,016 Descending Houston Center
Sun 03:52:39 PM 29.2689 -96.3672 83° East 372 428 14,200 -988 Descending Houston Center
Sun 03:53:02 PM 29.2733 -96.3217 84° East 379 436 13,900 -952 Descending Houston Center
Sun 03:53:42 PM 29.2800 -96.2494 84° East 372 428 13,200 -1,091 Descending Houston Center
Sun 03:53:57 PM 29.2853 -96.2150 80° East 371 427 12,900 -968 Descending Houston Center
Sun 03:54:44 PM 29.2928 -96.1367 84° East 362 417 12,200 -550 Descending Houston Center
Sun 03:55:46 PM 29.3103 -96.0300 79° East 352 405 11,900 -290 Descending Houston Center
Sun 03:56:48 PM 29.3872 -95.9478 43° Northeast 355 409 11,600 -519 Descending Houston Center
Sun 03:57:07 PM 29.4169 -95.9175 42° Northeast 350 403 11,200 -968 Descending Houston Center
Sun 03:57:50 PM 29.4583 -95.8731 43° Northeast 349 402 10,600 -984 Descending Houston Center
Sun 03:58:08 PM 29.4919 -95.8392 41° Northeast 352 405 10,200 -581 Descending Houston Center
Sun 03:58:52 PM 29.5311 -95.7967 43° Northeast 352 405 10,000 -197 Descending Houston Center
Sun 03:59:09 PM 29.5558 -95.7550 56° Northeast 353 406 10,000  Level Houston Center
Sun 03:59:54 PM 29.5722 -95.6706 77° East 361 415 10,000  Level Houston Center
Sun 04:00:10 PM 29.5794 -95.6417 74° East 345 397 10,000 -968 Level Houston Center
Sun 04:00:56 PM 29.5933 -95.5719 77° East 324 373 9,000 -1,500 Descending Houston Center
Sun 04:01:58 PM 29.6125 -95.4822 76° East 296 341 7,300 -1,792 Descending Houston Center
Sun 04:02:13 PM 29.6189 -95.4522 76° East 291 335 6,700 -1,258 Descending Houston Center
Sun 04:03:00 PM 29.6258 -95.3922 82° East 289 333 6,000 -362 Descending Houston Center
Sun 04:04:09 PM 29.5661 -95.3119 131° Southeast 256 295 6,000 -288 Level Houston Center
Sun 04:05:05 PM 29.5200 -95.2594 135° Southeast 260 299 5,400 -661 Descending Houston Center
Sun 04:06:07 PM 29.4764 -95.2061 133° Southeast 240 276 4,700 -774 Descending Houston Center
Sun 04:07:09 PM 29.4825 -95.1458 83° East 211 243 3,800 -897 Descending Houston Center
Sun 04:09:21 PM 29.5792 -95.2022 333° Northwest 166 191 1,800 -871 Descending Houston Center
Sun 04:10:15 PM 29.5994 -95.2256 315° West 166 191 1,100 -780 Descending Houston Center
Sun 04:11:24 PM 29.6308 -95.2633 314° West 128 147 200 -484 Descending Houston Center
Sun 04:12:19 PM 29.6550 -95.2892 317° Northwest 139 160 100 -109 Descending Houston Center

Login

Don't have an account? Register now (free) for customized features, flight alerts, and more!